Time;durP1;ratioP1;P1;durP2;ratioP2;P2;SDS_P1;SDS_P2;PMS_P1;PMS_P2;Temp;Humidity;BMP_temperature;BMP_pressure;BME280_temperature;BME280_humidity;BME280_pressure;Samples;Min_cycle;Max_cycle;Signal;HPM_P1;HPM_P2
2022/03/15 00:01:03;;;;;;;1.15;1.00;;;;;;;-2.13;49.31;100838.00;4843365;29;20461;-74
2022/03/15 00:03:28;;;;;;;1.80;1.17;;;;;;;-2.22;49.61;100841.50;4826683;29;20782;-72
2022/03/15 00:05:53;;;;;;;1.35;0.88;;;;;;;-2.24;49.95;100858.03;4842920;29;20040;-72
2022/03/15 00:08:19;;;;;;;1.08;0.90;;;;;;;-2.26;50.08;100850.19;4842485;29;20049;-72
2022/03/15 00:10:45;;;;;;;0.70;0.70;;;;;;;-2.27;50.97;100848.50;4841646;29;20049;-72
2022/03/15 00:13:10;;;;;;;2.15;1.20;;;;;;;-2.30;50.76;100861.53;4843396;29;20054;-77
2022/03/15 00:15:36;;;;;;;0.75;0.73;;;;;;;-2.29;51.02;100854.59;4844677;29;20107;-73
2022/03/15 00:18:01;;;;;;;1.83;1.13;;;;;;;-2.23;51.21;100858.03;4844472;29;20057;-77
2022/03/15 00:20:26;;;;;;;1.08;0.60;;;;;;;-2.20;51.04;100863.28;4842649;29;20458;-72
2022/03/15 00:22:55;;;;;;;1.65;0.95;;;;;;;-2.07;50.49;100864.16;4826562;29;20723;-78
2022/03/15 00:25:20;;;;;;;1.45;0.77;;;;;;;-2.09;50.08;100876.34;4843638;29;20127;-74
2022/03/15 00:27:46;;;;;;;1.25;0.50;;;;;;;-2.12;49.62;100873.72;4841767;29;20153;-78
2022/03/15 00:30:11;;;;;;;0.63;0.35;;;;;;;-2.18;49.25;100872.84;4828405;29;20096;-77
2022/03/15 00:32:36;;;;;;;1.48;0.70;;;;;;;-2.28;49.59;100866.78;4828214;29;20036;-77
2022/03/15 00:35:05;;;;;;;0.45;0.45;;;;;;;-2.36;50.03;100873.72;4844908;29;20048;-77
2022/03/15 00:37:30;;;;;;;0.40;0.40;;;;;;;-2.46;49.75;100877.19;4843498;29;20055;-71
2022/03/15 00:39:55;;;;;;;3.00;2.50;;;;;;;-2.50;50.14;100875.47;4844267;29;20053;-76
2022/03/15 00:42:20;;;;;;;1.75;0.70;;;;;;;-2.51;50.06;100881.56;4827136;29;20045;-74
2022/03/15 00:44:44;;;;;;;1.67;0.93;;;;;;;-2.49;49.51;100885.03;4842433;29;20057;-73
2022/03/15 00:47:10;;;;;;;0.30;0.28;;;;;;;-2.46;50.14;100888.50;4825844;29;20748;-69
2022/03/15 00:49:35;;;;;;;0.70;0.70;;;;;;;-2.43;50.03;100885.03;4843123;29;20127;-70
2022/03/15 00:52:00;;;;;;;1.30;0.73;;;;;;;-2.40;49.83;100891.13;4826016;29;20045;-69
2022/03/15 00:54:25;;;;;;;1.25;0.50;;;;;;;-2.40;49.88;100887.66;4841152;29;20052;-70
2022/03/15 00:56:50;;;;;;;1.00;0.30;;;;;;;-2.40;49.22;100893.75;4841043;29;20040;-71
2022/03/15 00:59:15;;;;;;;0.20;0.20;;;;;;;-2.48;49.23;100897.22;4842743;29;20131;-71
2022/03/15 01:01:40;;;;;;;0.35;0.30;;;;;;;-2.54;49.52;100900.69;4841331;29;20096;-71
2022/03/15 01:04:07;;;;;;;0.80;0.52;;;;;;;-2.58;49.28;100893.72;4843461;29;20091;-70
2022/03/15 01:06:32;;;;;;;0.65;0.30;;;;;;;-2.64;49.08;100907.63;4842286;29;20072;-73
2022/03/15 01:08:56;;;;;;;0.17;0.17;;;;;;;-2.74;48.34;100912.81;4844741;29;20135;-76
2022/03/15 01:11:21;;;;;;;0.95;0.63;;;;;;;-2.78;48.83;100913.69;4845972;29;20049;-71
2022/03/15 01:13:46;;;;;;;1.75;0.25;;;;;;;-2.84;49.54;100911.06;4846268;29;20045;-72
2022/03/15 01:16:12;;;;;;;0.28;0.28;;;;;;;-2.91;49.24;100910.16;4850564;29;20135;-71
2022/03/15 01:18:37;;;;;;;0.35;0.20;;;;;;;-2.96;49.40;100910.16;4864279;29;20065;-69
2022/03/15 01:21:03;;;;;;;0.10;0.10;;;;;;;-3.00;49.35;100915.34;4864100;29;20486;-71
2022/03/15 01:23:28;;;;;;;0.57;0.38;;;;;;;-3.04;49.73;100918.78;4865498;29;20491;-68
2022/03/15 01:25:54;;;;;;;0.30;0.30;;;;;;;-3.03;49.57;100925.75;4867057;29;20045;-72
2022/03/15 01:28:19;;;;;;;0.30;0.30;;;;;;;-3.02;49.55;100924.91;4850724;29;20090;-70
2022/03/15 01:30:44;;;;;;;0.57;0.52;;;;;;;-3.06;49.42;100920.56;4865287;29;20499;-71
2022/03/15 01:33:09;;;;;;;0.75;0.50;;;;;;;-3.07;49.43;100921.41;4864763;29;20044;-69
2022/03/15 01:35:36;;;;;;;0.50;0.50;;;;;;;-3.08;49.14;100927.50;4864360;29;20151;-66
2022/03/15 01:38:00;;;;;;;0.40;0.40;;;;;;;-3.08;49.37;100922.28;4864937;29;20127;-71
2022/03/15 01:40:25;;;;;;;1.17;0.50;;;;;;;-3.09;49.19;100926.63;4849876;29;20487;-70
2022/03/15 01:42:50;;;;;;;0.25;0.25;;;;;;;-3.09;48.73;100925.75;4866531;29;20040;-70
2022/03/15 01:45:15;;;;;;;0.75;0.70;;;;;;;-3.14;49.14;100932.66;4865322;29;20048;-70
2022/03/15 01:47:42;;;;;;;0.40;0.40;;;;;;;-3.15;49.31;100930.91;4874966;29;20049;-73
2022/03/15 01:50:08;;;;;;;0.30;0.30;;;;;;;-3.13;48.95;100947.47;4876849;29;20052;-70
2022/03/15 01:52:33;;;;;;;0.50;0.47;;;;;;;-3.20;49.03;100938.75;4881044;29;20060;-76
2022/03/15 01:54:58;;;;;;;0.45;0.45;;;;;;;-3.25;48.93;100945.66;4880051;29;20055;-70
2022/03/15 01:57:23;;;;;;;0.30;0.30;;;;;;;-3.25;49.60;100944.78;4867261;29;20044;-74
2022/03/15 01:59:48;;;;;;;1.38;0.77;;;;;;;-3.25;49.07;100950.00;4863853;29;20052;-69
2022/03/15 02:02:13;;;;;;;0.88;0.52;;;;;;;-3.28;49.11;100950.88;4862773;29;20071;-69
2022/03/15 02:04:38;;;;;;;0.57;0.55;;;;;;;-3.34;49.72;100950.81;4864911;29;20048;-70
2022/03/15 02:07:05;;;;;;;0.90;0.40;;;;;;;-3.37;49.90;100953.41;4863610;29;20112;-72
2022/03/15 02:09:30;;;;;;;0.85;0.50;;;;;;;-3.40;50.14;100956.03;4864371;29;20076;-69
2022/03/15 02:11:55;;;;;;;0.75;0.40;;;;;;;-3.43;49.89;100951.66;4864864;29;20049;-72
2022/03/15 02:14:21;;;;;;;0.75;0.50;;;;;;;-3.44;50.29;100949.03;4865253;29;20049;-75
2022/03/15 02:16:45;;;;;;;1.15;0.35;;;;;;;-3.42;49.95;100966.44;4862562;29;20052;-74
2022/03/15 02:19:10;;;;;;;0.73;0.43;;;;;;;-3.43;50.14;100966.41;4863722;29;20112;-73
2022/03/15 02:21:36;;;;;;;0.50;0.50;;;;;;;-3.42;50.32;100969.03;4861752;29;20048;-76
2022/03/15 02:24:01;;;;;;;1.63;0.70;;;;;;;-3.42;50.47;100973.38;4831263;29;20052;-74
2022/03/15 02:26:26;;;;;;;0.73;0.32;;;;;;;-3.40;50.13;100985.56;4847497;29;20041;-74
2022/03/15 02:28:51;;;;;;;1.20;0.30;;;;;;;-3.40;49.97;100975.16;4846915;29;20048;-75
2022/03/15 02:31:15;;;;;;;2.25;0.85;;;;;;;-3.38;49.74;100983.81;4849336;29;20104;-75
2022/03/15 02:33:41;;;;;;;0.90;0.60;;;;;;;-3.32;49.75;100976.06;4848494;29;20132;-65
2022/03/15 02:36:06;;;;;;;0.28;0.28;;;;;;;-3.36;49.48;100982.09;4864184;29;20044;-65
2022/03/15 02:38:31;;;;;;;1.27;0.50;;;;;;;-3.37;49.70;100982.97;4863889;29;20112;-65
2022/03/15 02:40:56;;;;;;;0.73;0.73;;;;;;;-3.41;49.55;100980.34;4863769;29;20040;-65
2022/03/15 02:43:21;;;;;;;0.85;0.50;;;;;;;-3.43;49.83;100982.06;4863133;29;20481;-66
2022/03/15 02:45:46;;;;;;;0.50;0.50;;;;;;;-3.47;49.69;100973.34;4861842;29;20047;-65
2022/03/15 02:48:10;;;;;;;0.73;0.73;;;;;;;-3.51;50.07;100984.63;4861555;29;20044;-66
2022/03/15 02:50:35;;;;;;;0.40;0.40;;;;;;;-3.52;49.72;100982.00;4861808;29;20579;-67
2022/03/15 02:53:00;;;;;;;1.02;0.55;;;;;;;-3.54;49.68;100989.81;4862933;29;20051;-62
2022/03/15 02:55:25;;;;;;;1.17;0.95;;;;;;;-3.57;49.85;100984.56;4862720;29;20048;-63
2022/03/15 02:57:52;;;;;;;0.63;0.60;;;;;;;-3.56;49.21;100986.31;4862951;29;20056;-65
2022/03/15 03:00:17;;;;;;;1.95;1.00;;;;;;;-3.57;50.09;101000.22;4866276;29;20052;-68
2022/03/15 03:02:42;;;;;;;0.43;0.43;;;;;;;-3.61;49.86;101002.81;4871634;29;20499;-64
2022/03/15 03:05:07;;;;;;;1.70;0.75;;;;;;;-3.63;49.81;101005.38;4868910;29;20047;-64
2022/03/15 03:07:34;;;;;;;1.90;0.63;;;;;;;-3.65;50.14;101007.09;4840219;29;20039;-65
2022/03/15 03:09:59;;;;;;;1.42;1.08;;;;;;;-3.68;50.27;101010.56;4870385;29;20044;-64
2022/03/15 03:12:25;;;;;;;1.13;0.68;;;;;;;-3.67;49.96;101003.59;4855712;29;20859;-65
2022/03/15 03:14:51;;;;;;;0.93;0.65;;;;;;;-3.67;50.00;101009.69;4852223;29;20144;-64
2022/03/15 03:17:16;;;;;;;0.35;0.35;;;;;;;-3.66;49.81;101010.56;4870167;29;20064;-65
2022/03/15 03:19:42;;;;;;;1.48;1.02;;;;;;;-3.65;49.82;100999.28;4870431;29;20048;-65
2022/03/15 03:22:06;;;;;;;0.90;0.50;;;;;;;-3.64;49.98;101014.06;4879809;29;20134;-73
2022/03/15 03:24:31;;;;;;;1.48;0.70;;;;;;;-3.67;49.65;101014.91;4880844;29;20075;-65
2022/03/15 03:26:56;;;;;;;1.02;0.65;;;;;;;-3.67;49.56;101020.13;4880847;29;20048;-66
2022/03/15 03:29:21;;;;;;;0.73;0.73;;;;;;;-3.69;49.48;101023.56;4879455;29;20044;-67
2022/03/15 03:31:46;;;;;;;2.42;0.70;;;;;;;-3.69;49.84;101027.03;4863783;29;20107;-65
2022/03/15 03:34:12;;;;;;;0.65;0.45;;;;;;;-3.70;49.54;101027.03;4863543;29;20043;-66
2022/03/15 03:36:37;;;;;;;0.50;0.50;;;;;;;-3.72;49.97;101027.00;4881021;29;20206;-66
2022/03/15 03:39:03;;;;;;;1.63;1.08;;;;;;;-3.75;49.79;101034.81;4879561;29;20040;-64
2022/03/15 03:41:29;;;;;;;1.17;0.80;;;;;;;-3.72;49.72;101036.56;4880507;29;20051;-65
2022/03/15 03:43:53;;;;;;;1.70;0.82;;;;;;;-3.73;49.35;101045.28;4863698;29;20043;-65
2022/03/15 03:46:18;;;;;;;1.52;1.00;;;;;;;-3.74;49.70;101044.41;4880778;29;20048;-66
2022/03/15 03:48:44;;;;;;;1.02;0.93;;;;;;;-3.75;49.80;101047.84;4880693;29;20562;-65
2022/03/15 03:51:11;;;;;;;2.35;1.08;;;;;;;-3.76;50.15;101055.66;4874668;29;20052;-65
2022/03/15 03:53:35;;;;;;;2.45;1.02;;;;;;;-3.76;49.64;101056.53;4857355;29;20044;-65
2022/03/15 03:56:00;;;;;;;2.25;1.35;;;;;;;-3.68;49.50;101056.59;4841864;29;20535;-66
2022/03/15 03:58:25;;;;;;;0.57;0.57;;;;;;;-3.67;49.10;101061.81;4843154;29;20045;-65
2022/03/15 04:00:50;;;;;;;2.40;1.50;;;;;;;-3.62;49.14;101061.88;4850190;29;20056;-65
2022/03/15 04:03:16;;;;;;;1.58;1.20;;;;;;;-3.58;48.96;101057.53;4857167;29;20045;-65
2022/03/15 04:05:41;;;;;;;2.92;1.02;;;;;;;-3.50;49.34;101058.50;4843274;29;20048;-66
2022/03/15 04:08:06;;;;;;;1.30;1.20;;;;;;;-3.38;48.98;101058.56;4826001;29;20041;-66
2022/03/15 04:10:31;;;;;;;0.85;0.65;;;;;;;-3.21;48.88;101066.53;4851225;29;20040;-65
2022/03/15 04:12:57;;;;;;;1.48;0.70;;;;;;;-3.03;48.09;101057.06;4860801;29;20048;-66
2022/03/15 04:15:24;;;;;;;2.30;0.80;;;;;;;-2.81;48.11;101062.41;4861723;29;20127;-67
2022/03/15 04:17:49;;;;;;;1.42;0.85;;;;;;;-2.63;47.62;101070.34;4849321;29;20223;-66
2022/03/15 04:20:14;;;;;;;1.13;0.68;;;;;;;-2.49;47.08;101065.19;4858543;29;20051;-66
2022/03/15 04:22:39;;;;;;;3.05;1.23;;;;;;;-2.38;46.73;101069.59;4842244;29;20153;-67
2022/03/15 04:25:04;;;;;;;5.93;1.60;;;;;;;-2.28;47.26;101070.50;4843162;29;20127;-67
2022/03/15 04:27:29;;;;;;;2.78;1.70;;;;;;;-2.16;46.83;101065.31;4862734;29;20044;-66
2022/03/15 04:29:53;;;;;;;1.83;1.17;;;;;;;-2.00;46.35;101069.69;4856393;29;20111;-68
2022/03/15 04:32:18;;;;;;;0.57;0.50;;;;;;;-1.87;46.42;101074.06;4852162;29;20044;-66
2022/03/15 04:34:43;;;;;;;2.63;1.70;;;;;;;-1.74;46.53;101076.72;4851921;29;20243;-65
2022/03/15 04:37:08;;;;;;;0.77;0.50;;;;;;;-1.61;45.52;101083.69;4854156;29;20136;-66
2022/03/15 04:39:33;;;;;;;1.42;1.05;;;;;;;-1.51;45.41;101073.25;4826055;29;20542;-66
2022/03/15 04:41:58;;;;;;;0.68;0.68;;;;;;;-1.40;45.58;101081.09;4842316;29;20097;-66
2022/03/15 04:44:22;;;;;;;2.05;1.67;;;;;;;-1.30;45.26;101081.97;4825983;29;20084;-66
2022/03/15 04:46:48;;;;;;;1.35;0.80;;;;;;;-1.23;45.05;101081.94;4845667;29;20049;-65
2022/03/15 04:49:13;;;;;;;1.38;1.23;;;;;;;-1.18;44.70;101074.09;4830294;29;20222;-66
2022/03/15 04:51:38;;;;;;;2.72;1.10;;;;;;;-1.11;44.80;101079.31;4846784;29;20109;-65
2022/03/15 04:54:04;;;;;;;1.95;1.17;;;;;;;-0.97;44.60;101083.66;4846731;29;20525;-65
2022/03/15 04:56:29;;;;;;;2.33;1.17;;;;;;;-0.81;44.79;101086.28;4845410;29;20076;-65
2022/03/15 04:58:53;;;;;;;1.23;0.90;;;;;;;-0.60;44.37;101087.94;4846467;29;20052;-66
2022/03/15 05:01:18;;;;;;;2.67;1.85;;;;;;;-0.44;44.14;101089.63;4846707;29;20529;-64
2022/03/15 05:03:43;;;;;;;1.98;1.08;;;;;;;-0.36;43.56;101084.38;4846510;29;20048;-65
2022/03/15 05:06:08;;;;;;;1.65;1.55;;;;;;;-0.30;43.59;101097.44;4847345;29;20044;-65
2022/03/15 05:08:33;;;;;;;2.08;1.05;;;;;;;-0.11;43.59;101095.59;4845134;29;20101;-64
2022/03/15 05:11:06;;;;;;;2.33;1.52;;;;;;;0.10;43.53;101090.28;4846483;29;20060;-64
2022/03/15 05:13:45;;;;;;;2.17;1.23;;;;;;;0.35;42.76;101085.72;4845003;29;20097;-64
2022/03/15 05:16:12;;;;;;;2.30;1.35;;;;;;;0.53;42.62;101084.72;4846167;29;20303;-64
2022/03/15 05:18:37;;;;;;;2.13;1.35;;;;;;;0.70;42.28;101094.19;4846239;29;20072;-65
2022/03/15 05:21:03;;;;;;;1.13;0.85;;;;;;;0.84;41.86;101094.09;4846133;29;20052;-67
2022/03/15 05:23:29;;;;;;;1.33;0.93;;;;;;;0.93;41.72;101093.13;4844395;29;20504;-65
2022/03/15 05:25:53;;;;;;;1.88;1.60;;;;;;;1.01;41.48;101088.69;4844826;29;20575;-65
2022/03/15 05:28:18;;;;;;;2.08;1.30;;;;;;;1.07;41.40;101100.00;4846034;29;20484;-66
2022/03/15 05:30:43;;;;;;;1.95;1.20;;;;;;;1.26;41.22;101094.56;4845916;29;20916;-67
2022/03/15 05:33:08;;;;;;;2.03;1.42;;;;;;;1.47;40.80;101104.81;4846006;29;20048;-65
2022/03/15 05:35:40;;;;;;;1.60;1.20;;;;;;;1.67;40.49;101100.22;4844805;29;20041;-66
2022/03/15 05:38:07;;;;;;;1.40;1.23;;;;;;;1.95;40.05;101099.88;4828958;29;20218;-66
2022/03/15 05:40:32;;;;;;;3.72;1.13;;;;;;;2.33;39.74;101097.59;4844419;29;20053;-67
2022/03/15 05:42:58;;;;;;;1.13;1.08;;;;;;;2.84;38.51;101108.19;4844348;29;20053;-67
2022/03/15 05:45:22;;;;;;;1.27;1.17;;;;;;;3.40;37.69;101116.84;4845475;29;20131;-67
2022/03/15 05:47:48;;;;;;;3.83;1.27;;;;;;;3.88;37.10;101104.47;4845153;29;20102;-65
2022/03/15 05:50:13;;;;;;;3.72;1.20;;;;;;;4.27;36.67;101118.59;4845306;29;20408;-65
2022/03/15 05:52:37;;;;;;;2.33;1.35;;;;;;;4.48;35.50;101115.47;4845012;29;20408;-65
2022/03/15 05:55:02;;;;;;;2.05;1.40;;;;;;;4.78;35.93;101120.94;4845060;29;20053;-65
2022/03/15 05:57:28;;;;;;;4.28;1.52;;;;;;;5.15;34.72;101116.47;4827162;29;20052;-65
2022/03/15 05:59:52;;;;;;;1.73;1.15;;;;;;;5.64;34.49;101118.69;4845290;29;20052;-66
2022/03/15 06:02:17;;;;;;;3.05;1.38;;;;;;;6.07;33.69;101121.00;4845060;29;20049;-65
2022/03/15 06:04:42;;;;;;;2.22;1.15;;;;;;;6.43;32.94;101124.28;4844952;29;20127;-66
2022/03/15 06:07:06;;;;;;;1.30;1.20;;;;;;;6.74;32.29;101124.22;4845175;29;20056;-65
2022/03/15 06:09:31;;;;;;;2.17;1.48;;;;;;;7.12;32.00;101125.59;4828680;29;20045;-65
2022/03/15 06:11:57;;;;;;;17.00;7.05;;;;;;;7.69;31.39;101126.25;4844814;29;20568;-66
2022/03/15 06:14:22;;;;;;;4.75;2.33;;;;;;;7.96;30.89;101130.59;4844977;29;20045;-66
2022/03/15 06:16:47;;;;;;;6.30;2.20;;;;;;;8.28;29.86;101124.06;4844792;29;20053;-65
2022/03/15 06:19:12;;;;;;;3.88;1.63;;;;;;;8.61;29.37;101124.56;4844872;29;20117;-67
2022/03/15 06:21:38;;;;;;;1.83;1.52;;;;;;;9.05;28.93;101120.09;4843753;29;20103;-68
2022/03/15 06:24:03;;;;;;;1.67;1.35;;;;;;;9.60;28.77;101123.91;4843527;29;20104;-67
2022/03/15 06:26:28;;;;;;;3.47;1.30;;;;;;;10.11;27.95;101122.50;4844943;29;20040;-65
2022/03/15 06:28:53;;;;;;;5.28;2.08;;;;;;;10.31;27.34;101127.81;4843661;29;20044;-66
2022/03/15 06:31:18;;;;;;;1.92;1.60;;;;;;;10.80;26.84;101125.47;4843415;29;20053;-68
2022/03/15 06:33:42;;;;;;;2.72;1.88;;;;;;;11.56;26.71;101121.63;4828175;29;20893;-68
2022/03/15 06:36:11;;;;;;;5.00;2.53;;;;;;;12.41;25.60;101119.72;4844764;29;20048;-67
2022/03/15 06:38:36;;;;;;;5.43;2.10;;;;;;;13.31;25.00;101118.09;4842282;29;20103;-67
2022/03/15 06:41:00;;;;;;;8.07;3.17;;;;;;;13.95;24.82;101119.53;4842558;29;20141;-67
2022/03/15 06:43:25;;;;;;;5.85;3.15;;;;;;;14.54;23.26;101122.97;4842536;29;20052;-67
2022/03/15 06:45:50;;;;;;;7.13;2.90;;;;;;;15.19;22.73;101132.06;4796393;29;20045;-67
2022/03/15 06:48:15;;;;;;;5.38;2.85;;;;;;;15.65;21.94;101128.97;4842256;29;20057;-66
2022/03/15 06:50:40;;;;;;;4.45;3.08;;;;;;;16.23;21.79;101132.97;4842312;29;20579;-67
2022/03/15 06:53:05;;;;;;;7.40;2.75;;;;;;;16.70;21.49;101132.25;4842538;29;20049;-67
2022/03/15 06:55:30;;;;;;;7.63;2.92;;;;;;;17.05;20.84;101127.78;4841994;29;20075;-67
2022/03/15 06:57:55;;;;;;;7.80;2.85;;;;;;;17.27;20.21;101132.41;4842022;29;20185;-67
2022/03/15 07:00:22;;;;;;;6.95;3.35;;;;;;;17.29;19.99;101132.31;4796284;29;20053;-67
2022/03/15 07:02:47;;;;;;;5.78;3.35;;;;;;;17.40;19.90;101124.25;4826859;29;20044;-67
2022/03/15 07:05:12;;;;;;;7.25;2.92;;;;;;;17.59;20.00;101121.03;4842068;29;20063;-66
2022/03/15 07:07:38;;;;;;;6.20;3.08;;;;;;;17.62;19.94;101131.56;4810657;29;20049;-66
2022/03/15 07:10:06;;;;;;;5.47;3.63;;;;;;;17.42;19.38;101120.47;4821712;29;20057;-67
2022/03/15 07:12:31;;;;;;;4.80;3.08;;;;;;;17.29;19.51;101122.38;4828133;29;20389;-67
2022/03/15 07:14:56;;;;;;;5.07;3.22;;;;;;;17.40;19.83;101117.03;4828086;29;20051;-66
2022/03/15 07:17:21;;;;;;;12.00;3.78;;;;;;;17.82;19.46;101121.97;4846147;29;20061;-67
2022/03/15 07:19:46;;;;;;;5.45;3.75;;;;;;;18.13;18.66;101118.56;4847236;29;20423;-68
2022/03/15 07:22:11;;;;;;;4.53;2.95;;;;;;;18.41;19.02;101123.47;4845441;29;20072;-67
2022/03/15 07:24:36;;;;;;;5.18;3.10;;;;;;;18.45;18.72;101124.94;4843359;29;20075;-66
2022/03/15 07:27:01;;;;;;;6.85;3.40;;;;;;;18.60;18.14;101122.88;4843034;29;20040;-68
2022/03/15 07:29:26;;;;;;;8.68;3.80;;;;;;;18.84;18.37;101123.56;4842496;29;20504;-66
2022/03/15 07:31:51;;;;;;;9.43;3.60;;;;;;;19.36;17.63;101123.75;4827431;29;20424;-65
2022/03/15 07:34:15;;;;;;;7.10;3.28;;;;;;;19.83;17.13;101123.28;4843227;29;20056;-66
2022/03/15 07:36:40;;;;;;;4.25;3.10;;;;;;;20.30;17.13;101126.38;4843196;29;20397;-66
2022/03/15 07:39:05;;;;;;;4.45;3.00;;;;;;;20.51;16.31;101124.50;4842773;29;20070;-66
2022/03/15 07:41:32;;;;;;;6.88;3.05;;;;;;;20.74;16.49;101124.28;4842746;29;20091;-68
2022/03/15 07:43:57;;;;;;;5.20;3.90;;;;;;;21.12;15.98;101132.44;4842649;29;20061;-67
2022/03/15 07:46:22;;;;;;;8.00;3.22;;;;;;;21.40;15.93;101135.38;4842543;29;20049;-66
2022/03/15 07:48:46;;;;;;;4.75;3.05;;;;;;;21.53;15.50;101127.78;4843549;29;20056;-68
2022/03/15 07:51:11;;;;;;;6.45;3.30;;;;;;;21.44;15.54;101139.50;4842518;29;20052;-65
2022/03/15 07:53:38;;;;;;;3.97;2.97;;;;;;;21.19;15.49;101127.38;4842559;29;20041;-67
2022/03/15 07:56:03;;;;;;;4.20;3.25;;;;;;;21.17;15.37;101137.47;4843776;29;20045;-66
2022/03/15 07:58:29;;;;;;;3.15;2.65;;;;;;;21.11;15.31;101138.88;4842404;29;20116;-66
2022/03/15 08:00:56;;;;;;;6.70;3.10;;;;;;;21.77;15.04;101136.34;4842265;29;20424;-67
2022/03/15 08:03:22;;;;;;;5.43;3.10;;;;;;;22.78;14.57;101133.75;4842283;29;20049;-66
2022/03/15 08:05:47;;;;;;;6.40;2.97;;;;;;;23.44;14.07;101140.72;4842491;29;20060;-67
2022/03/15 08:08:11;;;;;;;6.20;3.17;;;;;;;24.10;13.81;101143.81;4843675;29;20048;-67
2022/03/15 08:10:36;;;;;;;3.92;3.35;;;;;;;24.65;13.59;101139.84;4827152;29;20040;-66
2022/03/15 08:13:02;;;;;;;7.10;3.33;;;;;;;24.79;13.12;101141.97;4843862;29;20496;-66
2022/03/15 08:15:27;;;;;;;9.15;4.13;;;;;;;25.09;13.17;101140.53;4843150;29;20402;-66
2022/03/15 08:17:52;;;;;;;4.70;3.50;;;;;;;25.32;13.31;101141.59;4843115;29;20084;-68
2022/03/15 08:20:20;;;;;;;8.48;3.42;;;;;;;25.58;12.91;101136.84;4841239;29;20412;-66
2022/03/15 08:22:45;;;;;;;10.93;3.50;;;;;;;25.79;12.55;101138.25;4843082;29;20063;-67
2022/03/15 08:25:10;;;;;;;6.15;3.45;;;;;;;25.97;12.39;101136.16;4844572;29;20041;-67
2022/03/15 08:27:35;;;;;;;4.32;3.00;;;;;;;26.09;12.27;101133.91;4828796;29;20048;-66
2022/03/15 08:30:00;;;;;;;9.63;3.25;;;;;;;25.69;11.85;101132.97;4845133;29;20140;-66
2022/03/15 08:32:26;;;;;;;5.65;3.35;;;;;;;25.41;12.43;101137.84;4843396;29;20045;-66
2022/03/15 08:34:53;;;;;;;4.80;3.50;;;;;;;25.81;12.06;101126.13;4843659;29;20129;-67
2022/03/15 08:37:18;;;;;;;7.28;3.92;;;;;;;26.61;11.55;101126.13;4843102;29;20049;-68
2022/03/15 08:39:43;;;;;;;6.18;3.97;;;;;;;27.06;11.47;101126.25;4841946;29;20549;-66
2022/03/15 08:42:08;;;;;;;11.98;4.05;;;;;;;27.39;11.27;101123.28;4843257;29;20053;-66
2022/03/15 08:44:33;;;;;;;7.25;3.60;;;;;;;27.63;10.85;101120.38;4841873;29;20052;-66
2022/03/15 08:46:58;;;;;;;6.10;3.20;;;;;;;27.98;10.79;101124.31;4841559;29;20040;-67
2022/03/15 08:49:23;;;;;;;5.03;3.17;;;;;;;28.01;10.55;101129.41;4844001;29;20516;-65
2022/03/15 08:51:49;;;;;;;5.45;3.42;;;;;;;28.09;10.38;101123.00;4845539;29;20053;-65
2022/03/15 08:54:13;;;;;;;4.65;3.03;;;;;;;28.53;10.30;101131.28;4845400;29;20048;-66
2022/03/15 08:56:40;;;;;;;7.22;3.50;;;;;;;29.20;10.15;101118.19;4843759;29;20616;-67
2022/03/15 08:59:05;;;;;;;5.07;3.60;;;;;;;29.10;10.17;101125.91;4842522;29;20045;-67
2022/03/15 09:01:30;;;;;;;14.13;3.90;;;;;;;29.00;10.00;101127.25;4843908;29;20052;-66
2022/03/15 09:03:55;;;;;;;5.38;3.80;;;;;;;28.40;9.82;101120.97;4843813;29;20060;-66
2022/03/15 09:06:19;;;;;;;10.90;3.90;;;;;;;28.29;10.00;101129.69;4842509;29;20045;-65
2022/03/15 09:08:46;;;;;;;3.97;3.63;;;;;;;28.47;9.87;101127.38;4843235;29;20152;-71
2022/03/15 09:11:11;;;;;;;6.10;3.65;;;;;;;28.98;9.84;101121.97;4844662;29;20045;-66
2022/03/15 09:13:36;;;;;;;7.47;4.13;;;;;;;29.34;9.42;101127.44;4843274;29;20128;-66
2022/03/15 09:16:01;;;;;;;9.70;4.15;;;;;;;29.52;9.50;101122.34;4844728;29;20104;-66
2022/03/15 09:18:26;;;;;;;10.88;4.32;;;;;;;29.53;9.73;101125.94;4841747;29;20069;-66
2022/03/15 09:20:51;;;;;;;5.13;3.70;;;;;;;29.38;9.42;101119.66;4843208;29;20045;-67
2022/03/15 09:23:17;;;;;;;8.13;3.70;;;;;;;29.56;9.59;101125.56;4825550;29;20053;-66
2022/03/15 09:25:42;;;;;;;6.93;3.88;;;;;;;29.87;8.94;101109.53;4842443;29;20512;-65
2022/03/15 09:28:06;;;;;;;4.43;3.55;;;;;;;29.94;8.97;101117.81;4842883;29;20519;-65
2022/03/15 09:30:32;;;;;;;4.78;3.83;;;;;;;29.93;9.20;101124.38;4843312;29;20045;-67
2022/03/15 09:32:58;;;;;;;5.60;3.38;;;;;;;29.93;9.09;101127.13;4846423;29;20082;-71
2022/03/15 09:35:23;;;;;;;3.58;3.10;;;;;;;29.56;9.12;101125.56;4846762;29;20426;-66
2022/03/15 09:37:49;;;;;;;8.23;3.40;;;;;;;29.00;9.25;101117.13;4830207;29;20056;-67
2022/03/15 09:40:17;;;;;;;5.88;3.75;;;;;;;28.81;9.46;101115.84;4829515;29;20039;-67
2022/03/15 09:42:44;;;;;;;9.38;3.72;;;;;;;29.08;9.46;101122.50;4830016;29;20049;-72
2022/03/15 09:45:10;;;;;;;4.60;3.50;;;;;;;29.52;8.85;101127.84;4844689;29;20441;-67
2022/03/15 09:47:37;;;;;;;7.82;4.40;;;;;;;29.49;9.13;101130.97;4829452;29;20504;-67
2022/03/15 09:50:06;;;;;;;7.40;4.10;;;;;;;29.30;8.96;101125.25;4849092;29;20512;-67
2022/03/15 09:52:31;;;;;;;4.22;3.55;;;;;;;29.35;9.42;101117.25;4833985;29;20587;-69
2022/03/15 09:54:56;;;;;;;5.85;3.67;;;;;;;29.67;9.01;101119.53;4847757;29;20040;-67
2022/03/15 09:57:21;;;;;;;3.38;3.08;;;;;;;29.57;8.95;101121.75;4846191;29;20045;-66
2022/03/15 09:59:50;;;;;;;4.63;3.50;;;;;;;29.14;8.98;101127.19;4846641;29;20056;-67
2022/03/15 10:02:14;;;;;;;4.85;3.63;;;;;;;28.45;9.36;101120.38;4851983;29;20075;-69
2022/03/15 10:04:39;;;;;;;8.20;4.65;;;;;;;28.25;9.44;101114.63;4854309;29;20049;-67
2022/03/15 10:07:04;;;;;;;5.95;3.25;;;;;;;28.44;9.53;101122.28;4850035;29;20059;-66
2022/03/15 10:09:29;;;;;;;4.85;3.38;;;;;;;28.48;8.77;101131.84;4833933;29;20048;-66
2022/03/15 10:11:54;;;;;;;10.05;3.50;;;;;;;28.02;9.16;101124.78;4845873;29;20048;-68
2022/03/15 10:14:19;;;;;;;8.85;3.65;;;;;;;27.50;9.51;101127.47;4846001;29;20100;-67
2022/03/15 10:16:45;;;;;;;6.18;3.15;;;;;;;26.80;9.73;101117.47;4830259;29;20082;-67
2022/03/15 10:19:13;;;;;;;5.30;3.10;;;;;;;25.81;10.38;101117.06;4845683;29;20531;-67
2022/03/15 10:21:49;;;;;;;5.25;3.33;;;;;;;25.49;10.70;101116.03;4844447;29;20073;-78
2022/03/15 10:24:22;;;;;;;5.90;3.08;;;;;;;25.26;10.72;101110.38;4829198;29;20204;-66
2022/03/15 10:26:48;;;;;;;7.30;3.30;;;;;;;24.07;10.88;101113.28;4847386;29;20052;-68
2022/03/15 10:29:15;;;;;;;3.50;2.67;;;;;;;21.16;12.03;101114.91;4851917;29;20041;-67
2022/03/15 10:31:42;;;;;;;5.32;3.67;;;;;;;18.12;13.26;101108.75;4855530;29;20128;-68
2022/03/15 10:34:08;;;;;;;4.63;3.00;;;;;;;14.98;15.61;101119.22;4858943;29;20048;-67
2022/03/15 10:36:54;;;;;;;6.07;2.88;;;;;;;12.79;17.93;101114.00;4853069;29;20045;-65
2022/03/15 10:39:19;;;;;;;6.53;2.78;;;;;;;10.90;18.86;101122.28;4847241;29;20500;-65
2022/03/15 10:41:59;;;;;;;4.63;2.63;;;;;;;9.88;19.48;101126.22;4843899;29;20048;-65
2022/03/15 10:44:26;;;;;;;3.17;2.65;;;;;;;8.76;21.36;101118.63;4844573;29;20048;-65
2022/03/15 10:47:09;;;;;;;6.57;3.03;;;;;;;8.19;21.82;101119.97;4830341;29;20408;-65
2022/03/15 10:49:52;;;;;;;4.97;2.78;;;;;;;7.54;21.87;101117.09;4844568;29;20041;-65
2022/03/15 10:52:35;;;;;;;5.22;2.35;;;;;;;7.09;22.73;101120.41;4843573;29;20049;-64
2022/03/15 10:55:13;;;;;;;5.75;2.70;;;;;;;6.80;23.48;101108.09;4846849;29;20044;-66
2022/03/15 10:57:50;;;;;;;8.93;2.85;;;;;;;6.62;24.78;101111.34;4829803;29;20516;-67
2022/03/15 11:00:17;;;;;;;4.45;2.38;;;;;;;6.36;25.27;101113.94;4844751;29;20151;-70
2022/03/15 11:02:46;;;;;;;6.22;2.85;;;;;;;6.30;25.50;101117.66;4845240;29;20392;-69
2022/03/15 11:05:11;;;;;;;4.80;3.00;;;;;;;6.23;25.03;101109.94;4872758;29;20044;-70
2022/03/15 11:07:38;;;;;;;3.65;2.05;;;;;;;6.00;25.77;101106.19;4871201;29;20041;-70
2022/03/15 11:10:12;;;;;;;5.05;2.40;;;;;;;5.88;26.65;101108.28;4870210;29;20043;-71
2022/03/15 11:12:38;;;;;;;4.55;2.47;;;;;;;5.60;26.80;101108.22;4872397;29;20043;-69
2022/03/15 11:15:03;;;;;;;4.38;2.53;;;;;;;5.39;27.27;101110.53;4869659;29;20447;-72
2022/03/15 11:17:28;;;;;;;5.00;2.75;;;;;;;5.27;27.26;101105.56;4869988;29;20052;-71
2022/03/15 11:19:57;;;;;;;7.65;2.40;;;;;;;5.19;27.67;101109.34;4856030;29;20099;-69